createdAt,value
2023-01-20T00:01:46.237Z,100494.80
2023-01-20T00:04:51.863Z,100500.20
2023-01-20T00:07:57.269Z,100498.34
2023-01-20T00:11:02.372Z,100492.74
2023-01-20T00:14:14.532Z,100499.70
2023-01-20T00:17:19.630Z,100493.45
2023-01-20T00:20:25.952Z,100488.48
2023-01-20T00:23:30.694Z,100484.03
2023-01-20T00:26:39.288Z,100490.16
2023-01-20T00:29:38.878Z,100494.46
2023-01-20T00:32:46.151Z,100489.39
2023-01-20T00:35:52.495Z,100485.33
2023-01-20T00:38:58.199Z,100490.41
2023-01-20T00:42:03.063Z,100491.86
2023-01-20T00:45:08.676Z,100492.22
2023-01-20T00:48:14.793Z,100488.30
2023-01-20T00:51:20.137Z,100492.32
2023-01-20T00:54:25.469Z,100491.97
2023-01-20T00:57:31.639Z,100492.55
2023-01-20T01:00:37.180Z,100478.36
2023-01-20T01:03:42.863Z,100484.78
2023-01-20T01:06:49.168Z,100473.53
2023-01-20T01:09:54.361Z,100471.03
2023-01-20T01:13:00.744Z,100470.64
2023-01-20T01:16:05.356Z,100470.55
2023-01-20T01:19:10.738Z,100463.95
2023-01-20T01:22:15.815Z,100464.05
2023-01-20T01:25:22.028Z,100463.27
2023-01-20T01:28:21.329Z,100463.67
2023-01-20T01:31:28.309Z,100460.34
2023-01-20T01:34:33.586Z,100460.59
2023-01-20T01:37:39.472Z,100456.94
2023-01-20T01:40:48.902Z,100450.45
2023-01-20T01:43:54.316Z,100454.69
2023-01-20T01:47:00.516Z,100462.41
2023-01-20T01:50:05.938Z,100460.46
2023-01-20T01:53:11.593Z,100461.52
2023-01-20T01:56:17.333Z,100460.16
2023-01-20T01:59:22.384Z,100456.28
2023-01-20T02:02:28.136Z,100443.64
2023-01-20T02:05:34.524Z,100441.43
2023-01-20T02:08:40.739Z,100441.43
2023-01-20T02:11:48.223Z,100449.06
2023-01-20T02:14:56.379Z,100449.82
2023-01-20T02:18:14.299Z,100447.16
2023-01-20T02:21:47.218Z,100446.25
2023-01-20T02:25:25.438Z,100449.48
2023-01-20T02:29:01.279Z,100457.59
2023-01-20T02:32:36.510Z,100467.73
2023-01-20T02:36:11.640Z,100476.97
2023-01-20T02:39:27.926Z,100475.11
2023-01-20T02:42:55.719Z,100469.09
2023-01-20T02:46:08.360Z,100464.41
2023-01-20T02:49:39.477Z,100462.70
2023-01-20T02:52:49.498Z,100468.47
2023-01-20T02:55:58.093Z,100464.84
2023-01-20T02:59:04.018Z,100467.47
2023-01-20T03:02:28.795Z,100465.22
2023-01-20T03:05:37.206Z,100462.27
2023-01-20T03:08:44.043Z,100467.48
2023-01-20T03:11:49.910Z,100461.85
2023-01-20T03:14:54.635Z,100466.07
2023-01-20T03:18:00.847Z,100467.99
2023-01-20T03:21:06.446Z,100466.19
2023-01-20T03:24:15.575Z,100463.62
2023-01-20T03:27:21.161Z,100463.67
2023-01-20T03:30:32.325Z,100455.19
2023-01-20T03:33:38.076Z,100457.55
2023-01-20T03:36:44.861Z,100461.41
2023-01-20T03:39:43.653Z,100458.50
2023-01-20T03:43:08.063Z,100466.08
2023-01-20T03:46:20.884Z,100465.02
2023-01-20T03:49:33.895Z,100465.38
2023-01-20T03:52:48.758Z,100473.66
2023-01-20T03:56:22.232Z,100465.47
2023-01-20T03:59:28.472Z,100464.83
2023-01-20T04:02:33.653Z,100480.61
2023-01-20T04:05:39.361Z,100475.39
2023-01-20T04:08:48.002Z,100477.72
2023-01-20T04:11:53.741Z,100478.47
2023-01-20T04:14:59.867Z,100472.66
2023-01-20T04:17:57.988Z,100470.95
2023-01-20T04:21:07.095Z,100479.81
2023-01-20T04:24:28.005Z,100478.95
2023-01-20T04:27:34.426Z,100481.91
2023-01-20T04:30:40.257Z,100485.05
2023-01-20T04:33:46.581Z,100482.66
2023-01-20T04:36:51.894Z,100487.47
2023-01-20T04:39:58.080Z,100496.95
2023-01-20T04:43:04.066Z,100502.09
2023-01-20T04:46:11.350Z,100509.33
2023-01-20T04:49:17.396Z,100510.38
2023-01-20T04:52:22.206Z,100521.06
2023-01-20T04:55:28.202Z,100524.86
2023-01-20T04:58:34.007Z,100524.87
2023-01-20T05:01:38.949Z,100526.38
2023-01-20T05:04:31.046Z,100523.70
2023-01-20T05:07:36.067Z,100524.67
2023-01-20T05:10:42.449Z,100528.20
2023-01-20T05:13:47.958Z,100526.50
2023-01-20T05:16:53.706Z,100525.75
2023-01-20T05:19:59.116Z,100527.88
2023-01-20T05:23:05.095Z,100527.62
2023-01-20T05:26:09.824Z,100524.67
2023-01-20T05:29:16.283Z,100526.00
2023-01-20T05:32:23.071Z,100520.09
2023-01-20T05:35:28.628Z,100520.02
2023-01-20T05:38:34.529Z,100520.26
2023-01-20T05:41:40.210Z,100526.54
2023-01-20T05:44:45.611Z,100519.42
2023-01-20T05:47:51.295Z,100523.95
2023-01-20T05:50:56.885Z,100521.84
2023-01-20T05:54:02.988Z,100523.10
2023-01-20T05:57:07.680Z,100518.91
2023-01-20T06:00:13.399Z,100520.45
2023-01-20T06:03:19.141Z,100529.13
2023-01-20T06:06:25.933Z,100537.36
2023-01-20T06:09:31.369Z,100539.73
2023-01-20T06:12:37.225Z,100539.14
2023-01-20T06:15:43.759Z,100543.73
2023-01-20T06:18:49.307Z,100554.82
2023-01-20T06:21:55.574Z,100551.19
2023-01-20T06:25:01.576Z,100555.45
2023-01-20T06:28:07.396Z,100548.83
2023-01-20T06:31:18.814Z,100550.78
2023-01-20T06:34:24.724Z,100554.27
2023-01-20T06:37:30.147Z,100557.09
2023-01-20T06:40:36.320Z,100566.34
2023-01-20T06:43:45.984Z,100558.78
2023-01-20T06:46:52.804Z,100557.08
2023-01-20T06:49:59.413Z,100559.92
2023-01-20T06:53:06.580Z,100555.47
2023-01-20T06:56:12.563Z,100557.25
2023-01-20T06:59:18.571Z,100550.08
2023-01-20T07:02:27.551Z,100554.97
2023-01-20T07:05:34.311Z,100555.33
2023-01-20T07:08:39.413Z,100556.95
2023-01-20T07:11:38.707Z,100554.25
2023-01-20T07:14:30.653Z,100559.77
2023-01-20T07:17:28.815Z,100568.66
2023-01-20T07:20:34.405Z,100566.46
2023-01-20T07:23:40.229Z,100566.91
2023-01-20T07:26:45.575Z,100562.91
2023-01-20T07:29:51.186Z,100570.38
2023-01-20T07:32:58.133Z,100571.88
2023-01-20T07:36:07.651Z,100568.59
2023-01-20T07:39:12.771Z,100571.88
2023-01-20T07:42:17.480Z,100569.55
2023-01-20T07:45:23.450Z,100575.44
2023-01-20T07:48:28.632Z,100576.05
2023-01-20T07:51:34.652Z,100572.15
2023-01-20T07:54:40.458Z,100573.97
2023-01-20T07:57:47.159Z,100574.36
2023-01-20T08:00:55.605Z,100573.67
2023-01-20T08:04:02.521Z,100573.42
2023-01-20T08:07:07.800Z,100575.23
2023-01-20T08:10:12.812Z,100569.31
2023-01-20T08:13:18.353Z,100568.51
2023-01-20T08:16:25.215Z,100574.56
2023-01-20T08:19:30.800Z,100569.83
2023-01-20T08:22:36.263Z,100563.92
2023-01-20T08:25:41.152Z,100566.76
2023-01-20T08:28:47.598Z,100571.09
2023-01-20T08:31:54.268Z,100562.79
2023-01-20T08:35:00.469Z,100564.42
2023-01-20T08:38:05.665Z,100563.78
2023-01-20T08:41:11.767Z,100563.52
2023-01-20T08:44:18.146Z,100562.58
2023-01-20T08:47:23.375Z,100549.95
2023-01-20T08:50:23.670Z,100546.91
2023-01-20T08:53:29.748Z,100552.89
2023-01-20T08:56:35.276Z,100550.05
2023-01-20T08:59:41.239Z,100544.77
2023-01-20T09:02:47.350Z,100543.03
2023-01-20T09:05:53.475Z,100539.55
2023-01-20T09:09:00.423Z,100542.14
2023-01-20T09:12:05.899Z,100530.27
2023-01-20T09:15:14.501Z,100528.91
2023-01-20T09:18:20.469Z,100527.20
2023-01-20T09:21:27.051Z,100515.76
2023-01-20T09:24:32.417Z,100516.09
2023-01-20T09:27:38.473Z,100503.38
2023-01-20T09:30:43.992Z,100503.61
2023-01-20T09:33:52.996Z,100510.16
2023-01-20T09:36:59.713Z,100509.80
2023-01-20T09:40:23.635Z,100493.63
2023-01-20T09:44:04.431Z,100486.23
2023-01-20T09:47:56.285Z,100489.00
2023-01-20T09:51:26.621Z,100484.28
2023-01-20T09:54:41.123Z,100488.17
2023-01-20T09:57:50.004Z,100488.17
2023-01-20T10:00:57.873Z,100488.95
2023-01-20T10:04:25.427Z,100473.64
2023-01-20T10:07:49.951Z,100476.81
2023-01-20T10:11:26.082Z,100470.64
2023-01-20T10:15:24.552Z,100464.47
2023-01-20T10:18:36.351Z,100459.48
2023-01-20T10:21:51.421Z,100454.00
2023-01-20T10:25:04.759Z,100452.85
2023-01-20T10:28:19.537Z,100451.84
2023-01-20T10:31:25.383Z,100444.76
2023-01-20T10:34:34.392Z,100441.01
2023-01-20T10:37:42.787Z,100436.08
2023-01-20T10:41:13.379Z,100429.25
2023-01-20T10:44:26.004Z,100423.58
2023-01-20T10:47:54.476Z,100411.17
2023-01-20T10:51:25.667Z,100406.44
2023-01-20T10:54:59.541Z,100405.89
2023-01-20T10:58:12.545Z,100413.00
2023-01-20T11:01:20.535Z,100410.58
2023-01-20T11:04:32.994Z,100405.93
2023-01-20T11:07:31.229Z,100408.35
2023-01-20T11:10:35.395Z,100407.93
2023-01-20T11:13:36.910Z,100399.54
2023-01-20T11:16:42.664Z,100399.81
2023-01-20T11:20:10.662Z,100404.98
2023-01-20T11:23:16.805Z,100398.95
2023-01-20T11:26:51.252Z,100397.53
2023-01-20T11:30:02.374Z,100405.42
2023-01-20T11:33:39.079Z,100401.31
2023-01-20T11:36:46.269Z,100398.73
2023-01-20T11:39:59.120Z,100386.73
2023-01-20T11:42:53.562Z,100402.79
2023-01-20T11:45:45.544Z,100397.42
2023-01-20T11:48:31.369Z,100392.22
2023-01-20T11:51:40.432Z,100379.82
2023-01-20T11:54:45.509Z,100382.86
2023-01-20T11:57:55.757Z,100381.52
2023-01-20T12:01:02.401Z,100382.36
2023-01-20T12:04:36.755Z,100382.34
2023-01-20T12:08:00.419Z,100381.99
2023-01-20T12:11:05.552Z,100386.45
2023-01-20T12:14:37.509Z,100388.96
2023-01-20T12:18:11.550Z,100390.03
2023-01-20T12:21:27.734Z,100391.16
2023-01-20T12:24:47.190Z,100384.92
2023-01-20T12:28:04.348Z,100382.23
2023-01-20T12:31:16.776Z,100386.14
2023-01-20T12:34:30.252Z,100379.72
2023-01-20T12:37:47.893Z,100381.47
2023-01-20T12:41:01.062Z,100382.23
2023-01-20T12:44:27.232Z,100374.03
2023-01-20T12:47:58.816Z,100365.65
2023-01-20T12:51:22.602Z,100373.01
2023-01-20T12:55:01.722Z,100368.89
2023-01-20T12:58:19.078Z,100373.43
2023-01-20T13:02:06.676Z,100375.92
2023-01-20T13:05:18.801Z,100382.73
2023-01-20T13:09:14.003Z,100373.98
2023-01-20T13:12:59.399Z,100386.02
2023-01-20T13:16:17.512Z,100374.77
2023-01-20T13:19:48.958Z,100388.58
2023-01-20T13:22:55.346Z,100380.77
2023-01-20T13:26:00.994Z,100375.33
2023-01-20T13:29:09.642Z,100369.33
2023-01-20T13:32:15.866Z,100367.46
2023-01-20T13:35:40.924Z,100365.47
2023-01-20T13:38:46.574Z,100362.87
2023-01-20T13:42:06.000Z,100373.52
2023-01-20T13:45:35.922Z,100365.30
2023-01-20T13:48:41.980Z,100364.40
2023-01-20T13:51:57.166Z,100359.02
2023-01-20T13:55:03.371Z,100373.52
2023-01-20T13:58:09.069Z,100382.95
2023-01-20T14:01:19.585Z,100387.58
2023-01-20T14:04:33.870Z,100379.62
2023-01-20T14:07:43.124Z,100383.91
2023-01-20T14:10:50.103Z,100376.61
2023-01-20T14:13:56.936Z,100388.69
2023-01-20T14:17:03.561Z,100391.62
2023-01-20T14:20:09.334Z,100384.67
2023-01-20T14:23:41.060Z,100377.05
2023-01-20T14:26:47.155Z,100381.66
2023-01-20T14:29:53.832Z,100374.14
2023-01-20T14:32:58.643Z,100369.81
2023-01-20T14:36:04.375Z,100366.52
2023-01-20T14:39:13.872Z,100365.92
2023-01-20T14:42:17.811Z,100368.75
2023-01-20T14:45:33.937Z,100360.57
2023-01-20T14:48:39.613Z,100374.41
2023-01-20T14:51:46.081Z,100367.20
2023-01-20T14:55:02.349Z,100375.84
2023-01-20T14:58:08.729Z,100366.55
2023-01-20T15:01:12.720Z,100371.54
2023-01-20T15:04:19.737Z,100388.52
2023-01-20T15:07:32.072Z,100387.97
2023-01-20T15:10:37.467Z,100377.62
2023-01-20T15:13:42.422Z,100383.47
2023-01-20T15:16:58.263Z,100388.45
2023-01-20T15:20:03.625Z,100389.32
2023-01-20T15:23:09.376Z,100393.98
2023-01-20T15:26:32.573Z,100400.14
2023-01-20T15:29:44.386Z,100411.19
2023-01-20T15:32:48.993Z,100407.56
2023-01-20T15:35:53.759Z,100407.23
2023-01-20T15:38:59.241Z,100413.36
2023-01-20T15:42:06.022Z,100408.39
2023-01-20T15:45:11.801Z,100410.55
2023-01-20T15:48:17.467Z,100397.60
2023-01-20T15:51:25.308Z,100403.35
2023-01-20T15:54:30.827Z,100410.95
2023-01-20T15:57:35.395Z,100412.44
2023-01-20T16:00:44.932Z,100413.33
2023-01-20T16:03:51.801Z,100409.52
2023-01-20T16:06:56.943Z,100410.05
2023-01-20T16:10:03.509Z,100422.36
2023-01-20T16:13:09.796Z,100420.07
2023-01-20T16:16:16.496Z,100419.59
2023-01-20T16:19:25.717Z,100417.64
2023-01-20T16:22:31.312Z,100424.04
2023-01-20T16:25:36.984Z,100425.36
2023-01-20T16:28:43.291Z,100432.28
2023-01-20T16:31:48.968Z,100433.88
2023-01-20T16:34:54.594Z,100437.24
2023-01-20T16:38:03.973Z,100430.86
2023-01-20T16:41:20.726Z,100436.27
2023-01-20T16:44:25.908Z,100434.63
2023-01-20T16:47:30.923Z,100437.10
2023-01-20T16:50:36.423Z,100431.48
2023-01-20T16:53:42.544Z,100430.50
2023-01-20T16:56:48.680Z,100424.73
2023-01-20T16:59:46.535Z,100419.41
2023-01-20T17:02:52.104Z,100414.65
2023-01-20T17:05:58.480Z,100414.41
2023-01-20T17:09:05.851Z,100409.52
2023-01-20T17:12:11.627Z,100405.46
2023-01-20T17:15:16.793Z,100412.95
2023-01-20T17:18:24.059Z,100404.59
2023-01-20T17:21:30.110Z,100414.05
2023-01-20T17:24:35.164Z,100415.41
2023-01-20T17:27:39.854Z,100421.16
2023-01-20T17:30:45.816Z,100417.37
2023-01-20T17:33:50.452Z,100422.53
2023-01-20T17:36:56.484Z,100421.33
2023-01-20T17:40:01.708Z,100429.17
2023-01-20T17:43:11.319Z,100423.05
2023-01-20T17:46:29.690Z,100422.44
2023-01-20T17:49:35.158Z,100425.87
2023-01-20T17:52:40.062Z,100408.31
2023-01-20T17:55:45.023Z,100406.59
2023-01-20T17:58:51.413Z,100398.00
2023-01-20T18:02:01.713Z,100397.88
2023-01-20T18:05:06.944Z,100406.48
2023-01-20T18:08:13.948Z,100408.55
2023-01-20T18:11:25.692Z,100413.36
2023-01-20T18:14:33.020Z,100414.81
2023-01-20T18:17:40.842Z,100410.39
2023-01-20T18:20:46.357Z,100409.79
2023-01-20T18:23:52.634Z,100411.38
2023-01-20T18:26:58.082Z,100408.67
2023-01-20T18:30:05.992Z,100400.44
2023-01-20T18:33:11.492Z,100410.88
2023-01-20T18:36:23.521Z,100402.64
2023-01-20T18:39:32.060Z,100401.19
2023-01-20T18:42:37.391Z,100400.93
2023-01-20T18:45:43.511Z,100392.84
2023-01-20T18:48:55.510Z,100400.95
2023-01-20T18:52:02.372Z,100395.41
2023-01-20T18:55:07.536Z,100391.62
2023-01-20T18:58:15.811Z,100396.02
2023-01-20T19:01:26.738Z,100399.20
2023-01-20T19:04:32.228Z,100395.03
2023-01-20T19:07:37.183Z,100389.13
2023-01-20T19:10:42.770Z,100386.42
2023-01-20T19:13:47.531Z,100380.54
2023-01-20T19:16:55.030Z,100377.96
2023-01-20T19:20:01.615Z,100376.39
2023-01-20T19:23:08.161Z,100374.88
2023-01-20T19:26:16.487Z,100366.26
2023-01-20T19:29:28.343Z,100363.31
2023-01-20T19:32:33.510Z,100366.63
2023-01-20T19:35:42.065Z,100367.11
2023-01-20T19:38:49.108Z,100363.81
2023-01-20T19:41:54.660Z,100362.69
2023-01-20T19:44:59.570Z,100368.09
2023-01-20T19:48:05.396Z,100363.55
2023-01-20T19:51:11.386Z,100361.94
2023-01-20T19:54:16.891Z,100360.66
2023-01-20T19:57:21.609Z,100361.15
2023-01-20T20:00:29.054Z,100354.77
2023-01-20T20:03:35.293Z,100355.28
2023-01-20T20:06:55.830Z,100357.98
2023-01-20T20:10:03.007Z,100359.80
2023-01-20T20:13:09.131Z,100355.95
2023-01-20T20:16:18.679Z,100361.16
2023-01-20T20:19:26.913Z,100354.76
2023-01-20T20:22:33.204Z,100362.14
2023-01-20T20:25:39.721Z,100351.97
2023-01-20T20:28:45.160Z,100347.03
2023-01-20T20:31:50.819Z,100350.23
2023-01-20T20:34:57.010Z,100358.23
2023-01-20T20:38:03.446Z,100348.28
2023-01-20T20:41:14.524Z,100355.03
2023-01-20T20:44:19.296Z,100350.50
2023-01-20T20:47:27.202Z,100352.57
2023-01-20T20:50:33.993Z,100354.55
2023-01-20T20:53:39.413Z,100357.00
2023-01-20T20:56:44.609Z,100357.95
2023-01-20T20:59:59.187Z,100347.64
2023-01-20T21:02:56.704Z,100348.85
2023-01-20T21:06:02.697Z,100355.84
2023-01-20T21:09:09.737Z,100347.53
2023-01-20T21:12:15.344Z,100354.02
2023-01-20T21:15:21.305Z,100355.63
2023-01-20T21:18:27.838Z,100352.08
2023-01-20T21:21:32.634Z,100358.83
2023-01-20T21:24:39.184Z,100351.58
2023-01-20T21:27:44.997Z,100345.89
2023-01-20T21:30:50.530Z,100353.64
2023-01-20T21:33:57.960Z,100348.73
2023-01-20T21:37:02.835Z,100351.59
2023-01-20T21:40:08.507Z,100354.91
2023-01-20T21:43:32.494Z,100347.39
2023-01-20T21:46:39.487Z,100345.89
2023-01-20T21:50:05.132Z,100337.45
2023-01-20T21:53:10.967Z,100348.95
2023-01-20T21:56:16.915Z,100341.16
2023-01-20T21:59:22.919Z,100346.19
2023-01-20T22:02:28.964Z,100340.49
2023-01-20T22:05:35.292Z,100343.31
2023-01-20T22:08:42.175Z,100335.16
2023-01-20T22:11:48.573Z,100342.53
2023-01-20T22:14:54.546Z,100346.48
2023-01-20T22:17:54.142Z,100341.48
2023-01-20T22:20:47.168Z,100337.31
2023-01-20T22:23:52.733Z,100343.84
2023-01-20T22:27:03.935Z,100342.83
2023-01-20T22:30:09.659Z,100339.05
2023-01-20T22:33:16.409Z,100339.39
2023-01-20T22:36:22.784Z,100340.13
2023-01-20T22:39:28.669Z,100343.73
2023-01-20T22:42:34.511Z,100345.81
2023-01-20T22:45:39.858Z,100354.40
2023-01-20T22:48:46.780Z,100350.96
2023-01-20T22:51:52.708Z,100344.45
2023-01-20T22:54:58.822Z,100345.32
2023-01-20T22:58:04.621Z,100349.27
2023-01-20T23:01:10.649Z,100348.92
2023-01-20T23:04:19.295Z,100346.59
2023-01-20T23:07:17.517Z,100350.17
2023-01-20T23:10:25.783Z,100346.22
2023-01-20T23:13:31.324Z,100345.72
2023-01-20T23:16:37.541Z,100347.05
2023-01-20T23:19:36.471Z,100346.07
2023-01-20T23:22:42.532Z,100345.34
2023-01-20T23:25:47.782Z,100352.37
2023-01-20T23:28:53.515Z,100353.59
2023-01-20T23:31:59.938Z,100344.02
2023-01-20T23:35:05.642Z,100347.34
2023-01-20T23:38:11.518Z,100330.30
2023-01-20T23:41:16.393Z,100332.47
2023-01-20T23:44:21.993Z,100339.47
2023-01-20T23:47:27.828Z,100337.23
2023-01-20T23:50:33.922Z,100337.38
2023-01-20T23:53:39.113Z,100337.77
2023-01-20T23:56:45.125Z,100339.74
2023-01-20T23:59:52.161Z,100328.19
